Time;durP1;ratioP1;P1;durP2;ratioP2;P2;SDS_P1;SDS_P2;PMS_P1;PMS_P2;Temp;Humidity;BMP_temperature;BMP_pressure;BME280_temperature;BME280_humidity;BME280_pressure;Samples;Min_cycle;Max_cycle;Signal;HPM_P1;HPM_P2
2021/07/16 00:00:18;;;;;;;24.00;8.63;;;;;;;21.95;72.95;101572.84;3584234;40;20640;-79
2021/07/16 00:02:45;;;;;;;20.20;8.97;;;;;;;22.01;73.05;101571.88;3595184;40;20261;-80
2021/07/16 00:05:11;;;;;;;20.27;9.60;;;;;;;21.83;73.40;101577.41;3586255;40;20225;-81
2021/07/16 00:07:38;;;;;;;17.73;8.47;;;;;;;21.80;73.51;101574.81;3595271;40;20257;-81
2021/07/16 00:10:05;;;;;;;16.67;8.27;;;;;;;21.89;73.19;101574.69;3594705;40;20265;-80
2021/07/16 00:12:30;;;;;;;20.07;8.57;;;;;;;21.78;73.14;101579.19;3595096;40;20647;-81
2021/07/16 00:14:55;;;;;;;26.27;10.05;;;;;;;21.77;73.05;101572.25;3595814;40;20247;-79
2021/07/16 00:17:21;;;;;;;19.50;9.43;;;;;;;21.85;72.58;101579.09;3595612;40;20237;-80
2021/07/16 00:19:46;;;;;;;18.07;10.10;;;;;;;21.86;72.47;101575.59;3595392;40;20295;-80
2021/07/16 00:22:12;;;;;;;18.97;10.10;;;;;;;21.66;73.23;101574.13;3594462;40;20567;-80
2021/07/16 00:24:37;;;;;;;20.40;10.03;;;;;;;21.59;73.65;101582.91;3594786;40;20231;-81
2021/07/16 00:27:04;;;;;;;17.93;9.47;;;;;;;21.42;74.00;101585.75;3595008;40;20237;-81
2021/07/16 00:29:30;;;;;;;25.67;12.07;;;;;;;21.45;74.10;101590.03;3589560;40;20213;-80
2021/07/16 00:31:55;;;;;;;22.60;9.70;;;;;;;21.30;73.80;101590.25;3594641;40;20237;-82
2021/07/16 00:34:21;;;;;;;22.60;12.27;;;;;;;21.26;73.92;101594.66;3594115;40;20237;-80
2021/07/16 00:36:47;;;;;;;20.20;12.07;;;;;;;21.09;75.00;101603.56;3595065;40;20233;-81
2021/07/16 00:39:12;;;;;;;25.30;12.53;;;;;;;21.11;74.57;101602.66;3585911;40;20237;-80
2021/07/16 00:41:37;;;;;;;22.10;12.63;;;;;;;21.05;75.20;101609.66;3595194;40;20515;-80
2021/07/16 00:44:03;;;;;;;23.60;12.90;;;;;;;21.05;75.05;101610.50;3595055;40;20229;-80
2021/07/16 00:46:28;;;;;;;22.50;11.13;;;;;;;20.99;75.21;101612.31;3585897;40;20237;-79
2021/07/16 00:48:53;;;;;;;17.97;10.57;;;;;;;20.92;75.31;101613.28;3595302;40;20651;-81
2021/07/16 00:51:19;;;;;;;22.33;13.93;;;;;;;20.98;75.26;101605.38;3594873;40;20225;-80
2021/07/16 00:53:44;;;;;;;27.50;13.30;;;;;;;21.01;75.39;101618.38;3594567;40;20248;-80
2021/07/16 00:56:10;;;;;;;20.90;12.30;;;;;;;20.89;75.48;101615.88;3586318;40;20233;-80
2021/07/16 00:58:35;;;;;;;21.00;12.23;;;;;;;20.85;75.35;101620.25;3593760;40;20240;-79
2021/07/16 01:01:02;;;;;;;16.00;11.93;;;;;;;20.79;75.63;101611.63;3593612;40;20228;-80
2021/07/16 01:03:27;;;;;;;15.23;9.77;;;;;;;20.76;75.39;101617.75;3593969;40;20238;-81
2021/07/16 01:05:53;;;;;;;18.93;11.60;;;;;;;20.80;75.39;101616.84;3593841;40;21667;-78
2021/07/16 01:08:18;;;;;;;24.17;11.47;;;;;;;20.79;75.83;101616.84;3593843;40;20236;-81
2021/07/16 01:10:43;;;;;;;16.50;10.40;;;;;;;20.74;75.56;101621.25;3593710;40;20224;-81
2021/07/16 01:13:13;;;;;;;16.97;9.07;;;;;;;20.71;75.02;101629.06;3593340;40;20244;-80
2021/07/16 01:15:40;;;;;;;15.53;9.57;;;;;;;20.69;75.93;101636.03;3593629;40;20213;-81
2021/07/16 01:18:05;;;;;;;16.77;10.70;;;;;;;20.68;75.40;101635.16;3593494;40;20236;-80
2021/07/16 01:20:32;;;;;;;18.73;10.10;;;;;;;20.71;75.00;101635.16;3593839;40;20229;-80
2021/07/16 01:23:01;;;;;;;19.27;9.87;;;;;;;20.67;75.47;101638.66;3593583;40;20249;-78
2021/07/16 01:25:29;;;;;;;21.73;10.32;;;;;;;20.69;75.42;101641.25;3593833;40;20362;-79
2021/07/16 01:27:57;;;;;;;17.70;9.97;;;;;;;20.65;75.53;101635.22;3593791;40;20237;-80
2021/07/16 01:30:25;;;;;;;16.53;9.30;;;;;;;20.60;75.72;101630.91;3592983;40;20227;-80
2021/07/16 01:32:51;;;;;;;15.73;8.87;;;;;;;20.56;75.49;101630.09;3593497;40;20236;-80
2021/07/16 01:35:18;;;;;;;14.00;9.07;;;;;;;20.54;75.74;101624.00;3593882;40;20231;-80
2021/07/16 01:37:44;;;;;;;18.23;9.50;;;;;;;20.50;75.60;101629.28;3593284;40;20232;-80
2021/07/16 01:40:12;;;;;;;17.07;10.13;;;;;;;20.49;75.84;101628.41;3593152;40;20306;-80
2021/07/16 01:42:40;;;;;;;17.93;9.20;;;;;;;20.48;75.66;101620.59;3584123;40;20244;-79
2021/07/16 01:45:15;;;;;;;22.97;9.93;;;;;;;20.44;75.90;101624.09;3595258;40;20600;-80
2021/07/16 01:47:51;;;;;;;21.43;9.60;;;;;;;20.48;75.55;101626.69;3594977;40;20241;-80
2021/07/16 01:50:17;;;;;;;15.13;7.38;;;;;;;20.48;75.19;101628.41;3592195;40;20619;-80
2021/07/16 01:52:44;;;;;;;15.10;8.53;;;;;;;20.46;75.51;101624.97;3595397;40;20294;-81
2021/07/16 01:55:10;;;;;;;18.13;8.60;;;;;;;20.39;75.41;101623.28;3588117;40;20226;-81
2021/07/16 01:57:36;;;;;;;19.40;9.53;;;;;;;20.44;75.11;101630.19;3588250;40;20253;-79
2021/07/16 02:00:03;;;;;;;17.20;9.13;;;;;;;20.45;75.22;101624.09;3595976;40;20232;-80
2021/07/16 02:02:28;;;;;;;16.23;8.30;;;;;;;20.31;75.42;101635.50;3595588;40;20615;-79
2021/07/16 02:04:54;;;;;;;14.47;7.13;;;;;;;20.26;75.44;101640.72;3586827;40;20282;-80
2021/07/16 02:07:19;;;;;;;21.13;7.77;;;;;;;20.20;75.55;101645.97;3595891;40;20570;-80
2021/07/16 02:09:44;;;;;;;17.57;7.63;;;;;;;20.20;75.57;101635.56;3596513;40;20217;-80
2021/07/16 02:12:10;;;;;;;17.43;8.20;;;;;;;20.20;75.32;101648.59;3597093;40;20326;-80
2021/07/16 02:14:35;;;;;;;14.70;8.13;;;;;;;20.22;75.29;101641.63;3597049;40;20236;-81
2021/07/16 02:17:00;;;;;;;16.03;6.97;;;;;;;20.22;75.20;101644.22;3596617;40;20231;-80
2021/07/16 02:19:26;;;;;;;20.47;7.50;;;;;;;20.18;75.06;101645.09;3596985;40;20600;-81
2021/07/16 02:21:52;;;;;;;15.90;7.37;;;;;;;20.24;74.53;101641.63;3597415;40;20233;-80
2021/07/16 02:24:17;;;;;;;16.43;7.63;;;;;;;20.20;74.82;101655.50;3596300;40;20589;-80
2021/07/16 02:26:43;;;;;;;17.70;8.77;;;;;;;20.18;74.79;101647.72;3596256;40;20225;-80
2021/07/16 02:29:08;;;;;;;15.47;7.43;;;;;;;20.16;74.67;101649.47;3596064;40;20229;-81
2021/07/16 02:31:34;;;;;;;19.90;7.43;;;;;;;20.25;74.25;101648.53;3596680;40;20221;-81
2021/07/16 02:33:59;;;;;;;18.50;7.93;;;;;;;20.27;74.35;101652.84;3596229;40;20553;-81
2021/07/16 02:36:25;;;;;;;17.83;7.57;;;;;;;20.13;74.44;101665.09;3588519;40;20226;-81
2021/07/16 02:38:51;;;;;;;20.30;7.90;;;;;;;20.09;74.56;101672.94;3588707;40;20245;-80
2021/07/16 02:41:17;;;;;;;19.90;8.33;;;;;;;19.92;75.21;101678.19;3597831;40;20232;-82
2021/07/16 02:43:42;;;;;;;16.80;6.80;;;;;;;19.85;75.37;101686.03;3597587;40;20253;-81
2021/07/16 02:46:07;;;;;;;13.97;7.07;;;;;;;19.78;75.62;101693.00;3597282;40;20279;-80
2021/07/16 02:48:34;;;;;;;14.63;7.17;;;;;;;19.76;75.95;101693.88;3597518;40;20282;-81
2021/07/16 02:50:59;;;;;;;12.87;6.63;;;;;;;19.70;75.78;101697.38;3597054;40;20549;-80
2021/07/16 02:53:24;;;;;;;12.37;5.07;;;;;;;19.77;75.83;101706.00;3597689;40;20229;-81
2021/07/16 02:55:52;;;;;;;12.47;6.47;;;;;;;19.72;75.46;101705.16;3597247;40;20504;-79
2021/07/16 02:58:17;;;;;;;9.30;5.23;;;;;;;19.70;75.69;101705.16;3597178;40;20210;-81
2021/07/16 03:00:42;;;;;;;13.90;6.43;;;;;;;19.65;75.66;101704.31;3597083;40;20240;-80
2021/07/16 03:03:09;;;;;;;10.67;5.83;;;;;;;19.64;75.62;101701.72;3596879;40;20233;-80
2021/07/16 03:05:36;;;;;;;11.77;5.50;;;;;;;19.63;75.32;101703.44;3597211;40;20306;-80
2021/07/16 03:08:03;;;;;;;13.60;6.10;;;;;;;19.61;75.45;101707.78;3597599;40;20737;-80
2021/07/16 03:10:46;;;;;;;12.73;6.33;;;;;;;19.59;75.55;101701.75;3596838;40;20241;-81
2021/07/16 03:13:14;;;;;;;11.23;5.20;;;;;;;19.58;75.45;101709.56;3597454;40;20269;-81
2021/07/16 03:15:40;;;;;;;15.50;6.60;;;;;;;19.57;75.26;101702.63;3596984;40;20229;-80
2021/07/16 03:18:07;;;;;;;13.50;6.30;;;;;;;19.60;75.17;101707.78;3596831;40;20619;-80
2021/07/16 03:20:38;;;;;;;18.17;6.50;;;;;;;19.59;75.16;101704.34;3596439;40;20236;-80
2021/07/16 03:23:08;;;;;;;15.90;7.03;;;;;;;19.64;74.92;101705.19;3596960;40;20741;-81
2021/07/16 03:25:35;;;;;;;16.70;5.97;;;;;;;19.64;74.94;101705.19;3588603;40;20225;-80
2021/07/16 03:28:02;;;;;;;13.87;6.23;;;;;;;19.61;75.10;101706.91;3596934;40;20202;-81
2021/07/16 03:30:29;;;;;;;15.47;5.80;;;;;;;19.57;75.21;101711.28;3596759;40;20265;-80
2021/07/16 03:32:56;;;;;;;13.40;6.10;;;;;;;19.53;75.35;101719.09;3597001;40;20286;-79
2021/07/16 03:35:22;;;;;;;17.67;6.23;;;;;;;19.52;75.05;101722.53;3595657;40;20225;-79
2021/07/16 03:37:48;;;;;;;12.07;5.57;;;;;;;19.50;75.18;101727.78;3596260;40;20217;-79
2021/07/16 03:40:16;;;;;;;15.10;6.43;;;;;;;19.46;75.13;101725.16;3596258;40;20233;-79
2021/07/16 03:42:42;;;;;;;8.85;5.22;;;;;;;19.47;75.08;101721.69;3596991;40;20247;-80
2021/07/16 03:45:12;;;;;;;18.27;6.70;;;;;;;19.53;75.01;101727.75;3598554;40;20233;-80
2021/07/16 03:47:45;;;;;;;13.97;5.90;;;;;;;19.49;74.84;101731.22;3595938;40;20240;-81
2021/07/16 03:50:11;;;;;;;11.43;6.10;;;;;;;19.51;75.09;101732.09;3597839;40;20240;-81
2021/07/16 03:52:36;;;;;;;14.70;6.47;;;;;;;19.47;75.05;101726.88;3598080;40;20237;-81
2021/07/16 03:55:05;;;;;;;16.47;7.20;;;;;;;19.48;75.14;101729.50;3597116;40;20276;-80
2021/07/16 03:57:31;;;;;;;15.43;6.60;;;;;;;19.52;74.70;101723.41;3597474;40;20213;-81
2021/07/16 03:59:57;;;;;;;10.80;5.53;;;;;;;19.53;74.72;101726.91;3588009;40;20631;-81
2021/07/16 04:02:22;;;;;;;19.93;7.70;;;;;;;19.58;74.40;101730.34;3597281;40;20562;-80
2021/07/16 04:04:51;;;;;;;16.23;6.70;;;;;;;19.58;74.77;101732.94;3596298;40;20225;-79
2021/07/16 04:07:18;;;;;;;12.97;6.40;;;;;;;19.56;74.70;101732.94;3598187;40;20225;-80
2021/07/16 04:09:43;;;;;;;16.13;7.20;;;;;;;19.61;74.79;101726.00;3586999;40;20579;-79
2021/07/16 04:12:12;;;;;;;16.65;8.10;;;;;;;19.73;74.26;101730.28;3595993;40;20240;-81
2021/07/16 04:14:42;;;;;;;14.40;6.77;;;;;;;19.77;74.00;101730.25;3588338;40;20612;-80
2021/07/16 04:17:10;;;;;;;13.40;6.37;;;;;;;19.67;74.27;101725.13;3597466;40;20241;-79
2021/07/16 04:19:36;;;;;;;15.30;6.97;;;;;;;19.65;74.23;101735.50;3595447;40;20614;-80
2021/07/16 04:22:02;;;;;;;20.17;7.90;;;;;;;19.80;73.52;101735.44;3596247;40;20295;-79
2021/07/16 04:24:28;;;;;;;15.60;6.57;;;;;;;19.76;74.04;101728.53;3595796;40;20608;-80
2021/07/16 04:26:53;;;;;;;11.77;6.33;;;;;;;19.74;74.01;101735.47;3595675;40;20225;-80
2021/07/16 04:29:18;;;;;;;16.83;7.47;;;;;;;19.83;73.71;101737.16;3586081;40;20627;-81
2021/07/16 04:31:44;;;;;;;20.57;7.37;;;;;;;19.91;73.16;101736.28;3585989;40;20241;-79
2021/07/16 04:34:09;;;;;;;15.37;6.70;;;;;;;19.92;73.14;101747.53;3594774;40;20233;-78
2021/07/16 04:36:34;;;;;;;15.83;6.60;;;;;;;19.81;73.47;101744.97;3595241;40;20306;-81
2021/07/16 04:39:00;;;;;;;16.93;7.37;;;;;;;19.79;73.75;101743.25;3594868;40;20663;-81
2021/07/16 04:41:25;;;;;;;16.30;6.47;;;;;;;19.83;73.62;101739.78;3594884;40;20830;-80
2021/07/16 04:43:50;;;;;;;21.43;7.10;;;;;;;19.87;73.23;101731.97;3586024;40;20287;-81
2021/07/16 04:46:16;;;;;;;17.93;7.47;;;;;;;19.84;73.18;101733.69;3586262;40;20237;-80
2021/07/16 04:48:41;;;;;;;20.03;8.27;;;;;;;19.92;73.04;101735.41;3594344;40;20244;-79
2021/07/16 04:51:06;;;;;;;14.97;7.10;;;;;;;20.10;72.49;101735.34;3594988;40;20279;-80
2021/07/16 04:53:32;;;;;;;18.90;7.07;;;;;;;20.06;72.46;101731.00;3594267;40;20690;-80
2021/07/16 04:55:57;;;;;;;16.97;7.80;;;;;;;20.01;72.50;101737.09;3585769;40;20229;-78
2021/07/16 04:58:22;;;;;;;18.90;8.07;;;;;;;20.14;72.00;101737.06;3595078;40;20580;-80
2021/07/16 05:00:47;;;;;;;16.40;7.20;;;;;;;20.09;72.66;101733.59;3595834;40;20628;-80
2021/07/16 05:03:13;;;;;;;18.40;6.90;;;;;;;20.17;72.11;101739.63;3594518;40;20245;-80
2021/07/16 05:05:38;;;;;;;16.97;7.20;;;;;;;20.17;71.82;101738.78;3595593;40;20236;-81
2021/07/16 05:08:04;;;;;;;17.60;7.47;;;;;;;20.34;71.51;101740.41;3586152;40;20232;-81
2021/07/16 05:10:29;;;;;;;15.27;7.17;;;;;;;20.27;71.74;101738.72;3595662;40;20224;-80
2021/07/16 05:12:54;;;;;;;20.00;8.13;;;;;;;20.30;71.64;101741.31;3595894;40;20248;-81
2021/07/16 05:15:19;;;;;;;18.20;7.17;;;;;;;20.26;71.71;101744.78;3595981;40;20225;-80
2021/07/16 05:17:45;;;;;;;14.97;6.10;;;;;;;20.19;72.52;101747.44;3596167;40;20630;-80
2021/07/16 05:20:11;;;;;;;18.30;7.97;;;;;;;20.31;71.39;101740.44;3596394;40;20274;-81
2021/07/16 05:22:36;;;;;;;17.00;7.80;;;;;;;20.51;70.43;101754.19;3596076;40;20639;-80
2021/07/16 05:25:03;;;;;;;19.57;7.53;;;;;;;20.54;70.00;101753.31;3595782;40;20221;-80
2021/07/16 05:27:28;;;;;;;19.40;7.53;;;;;;;20.67;69.98;101752.31;3596170;40;20217;-80
2021/07/16 05:29:53;;;;;;;18.07;8.53;;;;;;;20.60;70.27;101755.88;3596154;40;20228;-81
2021/07/16 05:32:19;;;;;;;19.43;7.70;;;;;;;20.56;70.35;101762.84;3586219;40;20237;-81
2021/07/16 05:34:44;;;;;;;14.40;7.40;;;;;;;20.49;70.88;101761.13;3596179;40;20238;-80
2021/07/16 05:37:09;;;;;;;19.03;8.10;;;;;;;20.55;70.47;101763.69;3595857;40;20593;-81
2021/07/16 05:39:35;;;;;;;20.33;7.73;;;;;;;20.68;70.12;101761.91;3595856;40;20239;-80
2021/07/16 05:42:03;;;;;;;18.27;7.57;;;;;;;20.72;70.36;101763.56;3595577;40;20263;-80
2021/07/16 05:44:29;;;;;;;18.03;7.23;;;;;;;20.79;70.08;101758.34;3596706;40;20233;-81
2021/07/16 05:46:54;;;;;;;16.37;7.83;;;;;;;20.89;69.98;101772.13;3597049;40;20261;-81
2021/07/16 05:49:19;;;;;;;14.83;7.47;;;;;;;21.04;68.73;101762.50;3587762;40;20228;-80
2021/07/16 05:51:45;;;;;;;17.80;8.00;;;;;;;20.97;69.47;101766.03;3597136;40;20248;-79
2021/07/16 05:54:10;;;;;;;16.67;8.10;;;;;;;21.11;68.89;101768.50;3597035;40;20280;-80
2021/07/16 05:56:40;;;;;;;21.90;7.57;;;;;;;21.18;68.43;101772.78;3597087;40;20643;-81
2021/07/16 05:59:05;;;;;;;12.70;6.03;;;;;;;21.17;69.02;101778.88;3597218;40;20224;-81
2021/07/16 06:01:30;;;;;;;16.37;6.13;;;;;;;21.18;68.94;101784.06;3597090;40;20225;-80
2021/07/16 06:03:55;;;;;;;18.10;6.60;;;;;;;21.20;69.10;101792.75;3598451;40;20221;-80
2021/07/16 06:06:20;;;;;;;16.17;6.77;;;;;;;21.27;68.64;101793.53;3596847;40;20603;-81
2021/07/16 06:08:46;;;;;;;16.83;6.67;;;;;;;21.31;68.69;101793.50;3597158;40;20224;-80
2021/07/16 06:11:11;;;;;;;18.73;7.40;;;;;;;21.37;67.92;101797.81;3597158;40;20225;-80
2021/07/16 06:13:36;;;;;;;22.07;6.77;;;;;;;21.44;67.75;101800.34;3587922;40;20241;-80
2021/07/16 06:16:02;;;;;;;23.23;7.73;;;;;;;21.33;67.63;101802.16;3587717;40;20241;-80
2021/07/16 06:18:27;;;;;;;20.57;8.13;;;;;;;21.46;67.86;101803.78;3597112;40;20217;-81
2021/07/16 06:20:52;;;;;;;17.53;6.90;;;;;;;21.42;67.95;101809.06;3596967;40;20232;-81
2021/07/16 06:23:17;;;;;;;23.00;7.57;;;;;;;21.55;67.64;101797.63;3597530;40;20311;-80
2021/07/16 06:25:43;;;;;;;21.70;7.73;;;;;;;21.59;67.46;101796.69;3597318;40;20697;-82
2021/07/16 06:28:08;;;;;;;24.33;8.07;;;;;;;21.69;66.38;101806.22;3597192;40;20286;-80
2021/07/16 06:30:34;;;;;;;18.97;7.33;;;;;;;21.75;65.86;101800.94;3587391;40;20229;-81
2021/07/16 06:32:59;;;;;;;20.13;7.23;;;;;;;21.67;66.44;101800.97;3597086;40;20273;-81
2021/07/16 06:35:24;;;;;;;17.37;7.70;;;;;;;21.93;65.97;101795.50;3596743;40;20248;-80
2021/07/16 06:37:49;;;;;;;22.40;8.40;;;;;;;22.01;66.09;101807.56;3587303;40;20608;-80
2021/07/16 06:40:15;;;;;;;19.47;8.27;;;;;;;21.97;66.21;101810.25;3596961;40;20257;-80
2021/07/16 06:42:40;;;;;;;18.87;7.40;;;;;;;21.91;66.19;101819.00;3596255;40;20611;-80
2021/07/16 06:45:06;;;;;;;21.50;7.77;;;;;;;21.95;66.00;101805.03;3596527;40;20233;-81
2021/07/16 06:47:31;;;;;;;21.93;7.80;;;;;;;22.04;64.94;101804.06;3596514;40;20251;-80
2021/07/16 06:49:57;;;;;;;20.87;7.80;;;;;;;22.03;65.13;101804.94;3596744;40;20278;-80
2021/07/16 06:52:22;;;;;;;18.90;8.17;;;;;;;22.22;65.00;101811.66;3595652;40;20245;-80
2021/07/16 06:54:47;;;;;;;18.47;7.10;;;;;;;22.25;64.32;101809.03;3593209;40;20315;-80
2021/07/16 06:57:12;;;;;;;16.00;6.10;;;;;;;22.13;65.61;101814.38;3587650;40;20280;-81
2021/07/16 06:59:38;;;;;;;16.83;7.57;;;;;;;22.20;65.44;101818.66;3586326;40;20316;-81
2021/07/16 07:02:04;;;;;;;20.30;8.50;;;;;;;22.34;65.08;101824.56;3592903;40;20316;-80
2021/07/16 07:04:29;;;;;;;20.30;7.57;;;;;;;22.33;64.55;101820.22;3597463;40;20214;-80
2021/07/16 07:06:55;;;;;;;23.17;8.40;;;;;;;22.39;64.93;101826.22;3596849;40;20237;-79
2021/07/16 07:09:20;;;;;;;19.63;8.63;;;;;;;22.57;63.95;101826.91;3596516;40;20221;-80
2021/07/16 07:11:45;;;;;;;25.30;9.10;;;;;;;22.67;63.98;101821.53;3596539;40;20318;-80
2021/07/16 07:14:11;;;;;;;20.58;8.68;;;;;;;22.71;63.45;101822.34;3597278;40;20245;-80
2021/07/16 07:16:36;;;;;;;18.77;8.43;;;;;;;22.57;64.41;101827.78;3587481;40;20287;-81
2021/07/16 07:19:02;;;;;;;20.65;8.32;;;;;;;22.57;64.46;101838.22;3596377;40;20271;-80
2021/07/16 07:21:27;;;;;;;18.90;8.73;;;;;;;22.48;64.41;101832.25;3586727;40;20229;-80
2021/07/16 07:23:53;;;;;;;18.73;8.15;;;;;;;22.51;64.26;101837.44;3596613;40;20229;-80
2021/07/16 07:26:18;;;;;;;15.77;7.63;;;;;;;22.42;64.83;101842.75;3596652;40;20213;-81
2021/07/16 07:28:44;;;;;;;19.08;8.55;;;;;;;22.48;64.95;101842.69;3596024;40;20224;-80
2021/07/16 07:31:09;;;;;;;18.85;8.50;;;;;;;22.62;64.12;101845.97;3596838;40;20226;-81
2021/07/16 07:33:35;;;;;;;20.10;8.65;;;;;;;22.56;64.35;101840.84;3596864;40;20237;-81
2021/07/16 07:36:00;;;;;;;17.30;7.97;;;;;;;22.60;64.09;101838.16;3587994;40;20247;-81
2021/07/16 07:38:32;;;;;;;20.15;8.48;;;;;;;22.72;64.15;101837.13;3597077;40;20221;-81
2021/07/16 07:40:59;;;;;;;18.00;8.20;;;;;;;22.81;63.91;101832.63;3596714;40;20241;-81
2021/07/16 07:43:24;;;;;;;16.23;7.95;;;;;;;22.89;63.69;101830.78;3596187;40;20249;-79
2021/07/16 07:45:49;;;;;;;17.17;8.48;;;;;;;22.99;63.61;101837.59;3587586;40;20513;-81
2021/07/16 07:48:14;;;;;;;17.60;7.82;;;;;;;22.98;64.00;101838.44;3596390;40;20216;-81
2021/07/16 07:50:41;;;;;;;18.40;8.45;;;;;;;23.13;64.32;101845.19;3596565;40;20232;-81
2021/07/16 07:53:06;;;;;;;16.27;7.70;;;;;;;23.15;64.39;101852.13;3596724;40;20233;-81
2021/07/16 07:55:32;;;;;;;25.58;9.00;;;;;;;23.19;63.85;101846.00;3597236;40;20237;-80
2021/07/16 07:57:57;;;;;;;19.00;7.82;;;;;;;23.29;63.23;101852.81;3587975;40;20233;-81
2021/07/16 08:00:25;;;;;;;19.15;7.95;;;;;;;23.27;63.34;101857.22;3587917;40;20275;-81
2021/07/16 08:02:51;;;;;;;14.48;7.00;;;;;;;23.22;63.42;101863.38;3588201;40;20295;-81
2021/07/16 08:05:16;;;;;;;20.23;7.82;;;;;;;23.24;63.23;101865.09;3597094;40;20653;-82
2021/07/16 08:07:43;;;;;;;17.52;6.93;;;;;;;23.28;63.42;101851.09;3596565;40;20509;-79
2021/07/16 08:10:12;;;;;;;16.33;7.32;;;;;;;23.46;63.35;101847.28;3588161;40;20227;-80
2021/07/16 08:12:38;;;;;;;20.58;8.23;;;;;;;23.61;61.99;101849.66;3596531;40;20245;-80
2021/07/16 08:15:05;;;;;;;18.20;7.53;;;;;;;23.69;62.21;101843.38;3596169;40;20234;-81
2021/07/16 08:17:31;;;;;;;16.30;7.10;;;;;;;23.82;62.00;101847.50;3597599;40;20299;-81
2021/07/16 08:19:56;;;;;;;24.15;8.68;;;;;;;23.98;61.64;101850.72;3585220;40;20229;-80
2021/07/16 08:22:21;;;;;;;19.20;7.82;;;;;;;23.94;61.41;101860.38;3595066;40;20236;-80
2021/07/16 08:24:48;;;;;;;17.67;7.20;;;;;;;23.99;61.84;101855.06;3595464;40;20315;-80
2021/07/16 08:27:13;;;;;;;18.73;7.85;;;;;;;24.02;61.40;101858.47;3586679;40;20279;-80
2021/07/16 08:29:38;;;;;;;20.05;8.60;;;;;;;24.13;60.91;101845.19;3595379;40;20802;-79
2021/07/16 08:32:04;;;;;;;20.25;8.07;;;;;;;24.19;60.42;101842.44;3595203;40;20253;-80
2021/07/16 08:34:29;;;;;;;17.17;7.40;;;;;;;24.22;60.32;101853.69;3595481;40;20245;-79
2021/07/16 08:36:55;;;;;;;19.90;7.90;;;;;;;24.43;60.95;101849.78;3595237;40;20229;-79
2021/07/16 08:39:20;;;;;;;17.23;7.95;;;;;;;24.63;59.21;101855.50;3595184;40;20499;-80
2021/07/16 08:41:45;;;;;;;15.52;7.20;;;;;;;24.72;59.33;101855.31;3585799;40;20301;-79
2021/07/16 08:44:10;;;;;;;16.50;7.95;;;;;;;24.81;58.83;101860.34;3586172;40;20259;-80
2021/07/16 08:46:36;;;;;;;16.73;8.15;;;;;;;24.92;58.51;101867.06;3595382;40;20613;-79
2021/07/16 08:49:02;;;;;;;19.85;9.18;;;;;;;25.05;58.16;101865.00;3595624;40;20221;-80
2021/07/16 08:51:28;;;;;;;18.52;8.40;;;;;;;25.21;58.19;101868.97;3595638;40;20255;-80
2021/07/16 08:53:55;;;;;;;13.95;7.25;;;;;;;25.22;57.97;101870.69;3596615;40;20226;-79
2021/07/16 08:56:22;;;;;;;16.52;7.97;;;;;;;25.32;57.71;101867.84;3596890;40;20225;-80
2021/07/16 08:58:48;;;;;;;14.55;8.23;;;;;;;25.48;58.15;101863.97;3596896;40;20228;-81
2021/07/16 09:01:14;;;;;;;21.73;9.43;;;;;;;25.60;57.77;101858.38;3596916;40;20225;-81
2021/07/16 09:04:06;;;;;;;16.30;7.65;;;;;;;25.90;57.22;101860.19;3596133;40;20248;-83
2021/07/16 09:06:50;;;;;;;15.25;8.40;;;;;;;26.04;56.75;101863.34;3592052;40;20244;-81
2021/07/16 09:09:21;;;;;;;19.88;9.43;;;;;;;26.24;56.00;101858.38;3595685;40;20218;-81
2021/07/16 09:11:50;;;;;;;20.05;9.45;;;;;;;26.50;55.75;101862.88;3597067;40;20252;-80
2021/07/16 09:14:21;;;;;;;19.20;9.93;;;;;;;26.64;55.51;101861.59;3596694;40;20229;-80
2021/07/16 09:17:10;;;;;;;21.48;9.45;;;;;;;26.71;54.21;101855.22;3582303;40;20282;-80
2021/07/16 09:19:37;;;;;;;18.33;8.85;;;;;;;26.68;54.40;101860.59;3593891;40;20232;-80
2021/07/16 09:22:17;;;;;;;18.73;8.43;;;;;;;26.53;54.92;101865.41;3595504;40;20254;-81
2021/07/16 09:24:50;;;;;;;16.67;8.35;;;;;;;26.49;55.68;101867.28;3595354;40;20217;-81
2021/07/16 09:27:37;;;;;;;17.45;7.93;;;;;;;26.61;56.14;101866.09;3594667;40;20286;-81
2021/07/16 09:30:12;;;;;;;21.25;8.55;;;;;;;26.65;54.81;101868.56;3595443;40;20233;-80
2021/07/16 09:32:42;;;;;;;23.02;8.88;;;;;;;26.70;54.81;101871.06;3595557;40;20255;-81
2021/07/16 09:35:08;;;;;;;14.40;7.75;;;;;;;26.40;54.71;101869.31;3595286;40;20233;-81
2021/07/16 09:37:47;;;;;;;20.77;9.02;;;;;;;26.34;56.10;101872.13;3595492;40;20233;-81
2021/07/16 09:40:18;;;;;;;19.60;8.70;;;;;;;26.27;55.61;101876.69;3596008;40;20228;-81
2021/07/16 09:42:43;;;;;;;16.98;8.40;;;;;;;26.36;55.48;101876.44;3595391;40;20247;-81
2021/07/16 09:45:13;;;;;;;17.50;8.32;;;;;;;26.35;55.36;101864.19;3586281;40;20248;-81
2021/07/16 09:47:38;;;;;;;16.88;8.10;;;;;;;26.50;55.02;101868.13;3584027;40;20222;-80
2021/07/16 09:50:10;;;;;;;17.98;8.57;;;;;;;26.78;54.56;101859.41;3593253;40;20243;-82
2021/07/16 09:52:36;;;;;;;13.50;7.78;;;;;;;26.99;54.20;101860.50;3594881;40;20269;-81
2021/07/16 09:55:14;;;;;;;15.52;7.95;;;;;;;27.21;54.30;101859.78;3586351;40;20240;-80
2021/07/16 09:57:52;;;;;;;15.18;8.18;;;;;;;27.19;53.39;101860.75;3594801;40;20224;-81
2021/07/16 10:00:19;;;;;;;18.05;8.63;;;;;;;27.28;52.52;101849.91;3586811;40;20225;-82
2021/07/16 10:02:50;;;;;;;17.00;8.30;;;;;;;27.43;52.99;101849.38;3595412;40;20251;-81
2021/07/16 10:05:16;;;;;;;15.15;7.78;;;;;;;27.52;52.74;101859.63;3595184;40;20222;-81
2021/07/16 10:07:43;;;;;;;14.05;7.28;;;;;;;27.59;52.62;101848.81;3595653;40;20217;-79
2021/07/16 10:10:13;;;;;;;13.05;7.78;;;;;;;27.81;52.69;101860.38;3585671;40;20234;-81
2021/07/16 10:12:43;;;;;;;14.43;7.45;;;;;;;27.94;51.89;101855.50;3587170;40;20341;-81
2021/07/16 10:15:11;;;;;;;13.63;6.72;;;;;;;28.04;51.62;101865.66;3576516;39;20652;-80
2021/07/16 10:17:37;;;;;;;17.63;8.55;;;;;;;28.02;50.58;101861.38;3586868;40;20232;-81
2021/07/16 10:20:03;;;;;;;14.38;7.70;;;;;;;28.07;51.60;101856.78;3585855;40;20225;-82
2021/07/16 10:22:28;;;;;;;13.47;8.03;;;;;;;28.12;50.98;101863.63;3585693;40;20259;-81
2021/07/16 10:24:54;;;;;;;18.17;7.95;;;;;;;28.09;51.61;101853.19;3594293;40;20323;-80
2021/07/16 10:27:19;;;;;;;14.80;7.55;;;;;;;28.12;51.70;101866.25;3583870;40;20229;-81
2021/07/16 10:29:48;;;;;;;16.08;8.32;;;;;;;28.12;50.76;101860.13;3586110;40;20867;-82
2021/07/16 10:32:51;;;;;;;17.83;6.85;;;;;;;28.18;51.49;101870.47;3589921;40;20240;-81
2021/07/16 10:35:18;;;;;;;16.17;7.88;;;;;;;28.23;50.51;101871.97;3598350;40;20232;-81
2021/07/16 10:37:44;;;;;;;12.18;5.88;;;;;;;28.32;50.60;101863.75;3596138;40;20232;-81
2021/07/16 10:40:35;;;;;;;15.15;7.35;;;;;;;28.59;50.86;101868.00;3587971;40;20226;-81
2021/07/16 10:43:02;;;;;;;16.13;7.38;;;;;;;28.53;49.47;101870.00;3597326;40;20705;-82
2021/07/16 10:45:36;;;;;;;19.77;7.72;;;;;;;28.49;49.64;101871.03;3596614;40;20225;-82
2021/07/16 10:48:12;;;;;;;14.57;7.43;;;;;;;28.41;50.37;101881.03;3597400;40;20244;-81
2021/07/16 10:50:37;;;;;;;15.73;7.93;;;;;;;28.43;49.98;101887.97;3597177;40;20252;-83
2021/07/16 10:53:04;;;;;;;13.70;6.88;;;;;;;28.54;49.95;101877.00;3588131;40;20295;-82
2021/07/16 10:55:32;;;;;;;14.77;6.60;;;;;;;28.80;49.56;101876.88;3587901;40;20237;-82
2021/07/16 10:58:28;;;;;;;14.15;6.82;;;;;;;28.84;49.05;101876.69;3596953;40;20280;-82
2021/07/16 11:00:59;;;;;;;12.07;6.90;;;;;;;28.75;49.04;101878.81;3597038;40;20249;-82
2021/07/16 11:03:44;;;;;;;14.00;6.75;;;;;;;28.63;49.54;101879.28;3597109;40;20245;-82
2021/07/16 11:06:11;;;;;;;15.30;7.18;;;;;;;28.75;48.48;101882.34;3597341;40;20307;-82
2021/07/16 11:08:37;;;;;;;15.48;7.35;;;;;;;28.89;49.71;101887.94;3596754;40;20291;-80
2021/07/16 11:11:04;;;;;;;16.75;6.32;;;;;;;29.07;49.75;101892.50;3597090;40;20237;-82
2021/07/16 11:13:48;;;;;;;17.58;6.97;;;;;;;29.23;48.54;101879.53;3597257;40;20251;-83
2021/07/16 11:16:16;;;;;;;10.38;5.43;;;;;;;29.21;48.80;101884.03;3589148;39;20233;-82